Time;durP1;ratioP1;P1;durP2;ratioP2;P2;SDS_P1;SDS_P2;PMS_P1;PMS_P2;Temp;Humidity;BMP_temperature;BMP_pressure;BME280_temperature;BME280_humidity;BME280_pressure;Samples;Min_cycle;Max_cycle;Signal;HPM_P1;HPM_P2
2021/03/21 00:00:52;;;;;;;42.88;23.80;;;;;;;-1.21;62.95;94692.09;1621849;88;21247;-57
2021/03/21 00:03:21;;;;;;;32.50;20.50;;;;;;;-1.31;63.22;94686.06;1621842;87;21238;-56
2021/03/21 00:05:49;;;;;;;28.90;18.27;;;;;;;-1.40;63.01;94688.28;1621876;88;21117;-55
2021/03/21 00:08:21;;;;;;;34.73;20.30;;;;;;;-1.61;62.73;94685.41;1621887;86;21264;-56
2021/03/21 00:10:57;;;;;;;25.92;17.37;;;;;;;-1.75;63.23;94681.22;1602749;88;21096;-59
2021/03/21 00:13:26;;;;;;;27.02;18.27;;;;;;;-1.81;63.33;94678.66;1621623;88;21216;-58
2021/03/21 00:15:55;;;;;;;31.48;19.40;;;;;;;-1.97;63.50;94683.50;1621913;86;21159;-56
2021/03/21 00:18:27;;;;;;;27.17;17.57;;;;;;;-2.00;63.53;94678.86;1621858;86;21197;-56
2021/03/21 00:20:55;;;;;;;31.82;18.87;;;;;;;-2.00;62.89;94676.16;1621944;88;21592;-56
2021/03/21 00:23:23;;;;;;;31.75;19.15;;;;;;;-2.09;62.83;94675.70;1621868;88;21623;-56
2021/03/21 00:25:51;;;;;;;27.40;17.05;;;;;;;-2.10;62.75;94668.73;1621883;86;21191;-57
2021/03/21 00:28:23;;;;;;;36.25;19.50;;;;;;;-2.14;62.61;94666.58;1621904;86;21652;-56
2021/03/21 00:30:51;;;;;;;34.23;19.48;;;;;;;-2.25;62.53;94667.05;1624143;87;21112;-55
2021/03/21 00:33:22;;;;;;;31.52;19.40;;;;;;;-2.32;62.71;94660.80;1635020;87;21383;-57
2021/03/21 00:35:53;;;;;;;34.48;20.57;;;;;;;-2.41;62.91;94663.78;1635064;87;21550;-55
2021/03/21 00:38:25;;;;;;;29.87;20.05;;;;;;;-2.46;63.04;94661.98;1630202;88;21540;-56
2021/03/21 00:40:53;;;;;;;26.90;17.57;;;;;;;-2.42;63.24;94662.23;1635093;86;21622;-56
2021/03/21 00:43:23;;;;;;;24.72;17.15;;;;;;;-2.32;62.72;94658.87;1635032;87;21173;-57
2021/03/21 00:45:51;;;;;;;24.60;16.55;;;;;;;-2.40;62.54;94655.11;1635103;87;21178;-56
2021/03/21 00:48:25;;;;;;;24.92;17.62;;;;;;;-2.59;62.92;94653.37;1634955;87;21530;-55
2021/03/21 00:50:54;;;;;;;29.65;17.73;;;;;;;-2.74;63.01;94655.67;1607559;89;21598;-56
2021/03/21 00:53:22;;;;;;;33.15;19.37;;;;;;;-2.86;63.52;94651.09;1634986;86;21217;-55
2021/03/21 00:55:50;;;;;;;28.85;18.65;;;;;;;-2.93;63.81;94646.39;1634999;87;21530;-55
2021/03/21 00:58:19;;;;;;;40.28;23.90;;;;;;;-2.94;63.96;94642.14;1634978;87;21454;-56
2021/03/21 01:00:56;;;;;;;37.98;21.90;;;;;;;-2.95;64.13;94639.25;1607473;89;21134;-56
2021/03/21 01:03:24;;;;;;;35.23;20.82;;;;;;;-2.95;64.29;94631.18;1634972;86;21142;-56
2021/03/21 01:05:59;;;;;;;41.80;23.27;;;;;;;-2.89;64.28;94627.61;1634986;87;21178;-56
2021/03/21 01:08:36;;;;;;;36.80;20.30;;;;;;;-2.88;63.96;94622.43;1581347;89;21134;-56
2021/03/21 01:11:13;;;;;;;32.23;20.57;;;;;;;-2.97;63.82;94625.39;1634997;87;21215;-55
2021/03/21 01:13:41;;;;;;;42.23;26.25;;;;;;;-3.03;63.85;94622.03;1606993;89;21538;-56
2021/03/21 01:16:16;;;;;;;36.83;23.62;;;;;;;-3.08;64.00;94627.16;1634942;87;21107;-57
2021/03/21 01:18:44;;;;;;;33.15;21.10;;;;;;;-3.11;64.04;94621.72;1634986;87;21149;-56
2021/03/21 01:21:12;;;;;;;29.65;19.00;;;;;;;-3.03;64.07;94620.69;1634980;86;21197;-56
2021/03/21 01:23:42;;;;;;;32.13;19.12;;;;;;;-2.89;63.75;94616.84;1630103;88;21405;-56
2021/03/21 01:26:14;;;;;;;23.77;17.25;;;;;;;-2.89;63.55;94615.50;1634905;86;21113;-56
2021/03/21 01:28:43;;;;;;;24.90;16.57;;;;;;;-2.83;63.41;94606.71;1607808;87;21226;-57
2021/03/21 01:31:20;;;;;;;30.05;19.48;;;;;;;-2.93;62.96;94610.62;1634901;86;21517;-56
2021/03/21 01:33:49;;;;;;;29.70;19.32;;;;;;;-3.10;63.26;94612.50;1630261;88;21093;-56
2021/03/21 01:36:28;;;;;;;38.58;21.42;;;;;;;-3.22;63.56;94610.81;1635066;86;22339;-56
2021/03/21 01:38:57;;;;;;;44.35;25.85;;;;;;;-3.27;63.47;94616.52;1634853;86;21193;-56
2021/03/21 01:41:32;;;;;;;34.20;22.17;;;;;;;-3.42;63.60;94612.06;1634968;87;21110;-56
2021/03/21 01:44:01;;;;;;;40.43;21.07;;;;;;;-3.51;63.61;94603.50;1635085;87;21550;-56
2021/03/21 01:46:40;;;;;;;41.85;24.30;;;;;;;-3.57;63.91;94609.54;1635125;86;21514;-56
2021/03/21 01:49:32;;;;;;;43.98;26.00;;;;;;;-3.59;63.94;94604.31;1635089;86;22316;-56
2021/03/21 01:52:02;;;;;;;44.85;24.85;;;;;;;-3.64;64.11;94597.91;1634960;87;21570;-55
2021/03/21 01:54:31;;;;;;;56.53;29.48;;;;;;;-3.61;64.22;94602.55;1635005;86;21123;-56
2021/03/21 01:56:59;;;;;;;48.80;25.92;;;;;;;-3.64;64.33;94596.56;1601666;88;21122;-57
2021/03/21 01:59:31;;;;;;;50.75;26.68;;;;;;;-3.68;64.37;94597.08;1607845;87;21079;-55
2021/03/21 02:02:02;;;;;;;40.83;24.65;;;;;;;-3.72;64.46;94593.57;1630103;88;23006;-56
2021/03/21 02:04:31;;;;;;;44.38;26.23;;;;;;;-3.72;64.45;94594.91;1635025;86;21139;-57
2021/03/21 02:07:27;;;;;;;41.42;24.82;;;;;;;-3.65;64.83;94594.42;1630065;86;21111;-55
2021/03/21 02:10:31;;;;;;;46.37;25.27;;;;;;;-3.54;64.39;94593.27;1630085;86;21192;-56
2021/03/21 02:13:20;;;;;;;39.55;24.10;;;;;;;-3.53;64.29;94583.48;1630102;88;21080;-55
2021/03/21 02:16:00;;;;;;;39.92;23.90;;;;;;;-3.55;64.20;94580.97;1634968;86;21460;-56
2021/03/21 02:18:50;;;;;;;71.12;38.88;;;;;;;-3.54;64.26;94587.89;1634871;87;21105;-56
2021/03/21 02:21:32;;;;;;;58.40;31.93;;;;;;;-3.50;64.31;94583.55;1629141;86;21108;-55
2021/03/21 02:24:45;;;;;;;47.60;27.58;;;;;;;-3.52;64.09;94576.97;1635222;86;21085;-55
2021/03/21 02:27:34;;;;;;;56.23;29.60;;;;;;;-3.49;64.26;94577.58;1634386;87;21117;-55
2021/03/21 02:30:10;;;;;;;50.63;26.93;;;;;;;-3.53;64.09;94578.11;1634897;87;21166;-56
2021/03/21 02:32:49;;;;;;;51.85;29.10;;;;;;;-3.64;64.45;94575.84;1634805;87;21117;-56
2021/03/21 02:35:29;;;;;;;52.27;29.90;;;;;;;-3.74;64.20;94572.42;1607120;89;21114;-56
2021/03/21 02:38:09;;;;;;;51.05;26.90;;;;;;;-3.87;64.77;94572.41;1630092;88;21092;-56
2021/03/21 02:40:42;;;;;;;41.75;27.60;;;;;;;-3.78;64.90;94568.13;1630206;88;21136;-55
2021/03/21 02:43:13;;;;;;;;;;;;;;;-3.74;64.74;94570.29;1605474;88;21391;-56
2021/03/21 02:45:41;;;;;;;56.08;31.35;;;;;;;-3.74;64.64;94563.57;1603196;88;20538;-56
2021/03/21 02:48:16;;;;;;;50.08;31.25;;;;;;;-3.71;64.77;94568.25;1603019;88;21084;-56
2021/03/21 02:50:52;;;;;;;48.87;30.72;;;;;;;-3.69;64.59;94568.66;1635086;87;21182;-56
2021/03/21 02:53:28;;;;;;;53.90;30.50;;;;;;;-3.63;64.61;94572.58;1635128;87;21098;-56
2021/03/21 02:55:59;;;;;;;41.02;26.30;;;;;;;-3.54;64.45;94571.77;1607583;89;21413;-57
2021/03/21 02:58:52;;;;;;;64.27;34.25;;;;;;;-3.42;64.12;94569.05;1635109;87;21527;-56
2021/03/21 03:01:30;;;;;;;46.05;25.25;;;;;;;-3.35;63.74;94567.82;1635056;87;21089;-55
2021/03/21 03:04:07;;;;;;;50.10;25.17;;;;;;;-3.53;63.36;94561.22;1607649;89;21087;-56
2021/03/21 03:06:40;;;;;;;37.20;22.75;;;;;;;-3.73;63.59;94569.18;1630002;86;21410;-56
2021/03/21 03:09:22;;;;;;;55.80;31.40;;;;;;;-3.91;63.65;94567.55;1630317;88;21387;-56
2021/03/21 03:11:57;;;;;;;99.22;88.35;;;;;;;-4.00;63.69;94560.88;1629946;88;21497;-57
2021/03/21 03:14:31;;;;;;;58.02;35.92;;;;;;;-4.02;64.17;94555.09;1635087;86;21178;-56
2021/03/21 03:17:04;;;;;;;48.68;29.82;;;;;;;-3.85;64.09;94559.38;1635033;86;21120;-55
2021/03/21 03:19:53;;;;;;;49.55;27.62;;;;;;;-3.67;63.49;94552.95;1635090;87;21214;-55
2021/03/21 03:22:47;;;;;;;53.70;29.05;;;;;;;-3.71;63.03;94561.53;1607646;89;21533;-56
2021/03/21 03:25:21;;;;;;;54.55;29.23;;;;;;;-3.79;63.34;94550.45;1634982;87;21592;-56
2021/03/21 03:28:21;;;;;;;49.75;26.48;;;;;;;-3.95;63.46;94548.47;1607614;89;21110;-56
2021/03/21 03:31:15;;;;;;;61.65;31.00;;;;;;;-4.25;63.62;94549.73;1607667;87;21098;-56
2021/03/21 03:33:43;;;;;;;74.17;35.95;;;;;;;-4.52;64.14;94553.49;1635087;87;21157;-56
2021/03/21 03:36:14;;;;;;;58.20;28.90;;;;;;;-4.74;64.56;94541.39;1635055;86;22013;-56
2021/03/21 03:38:45;;;;;;;61.68;31.17;;;;;;;-4.84;64.76;94538.72;1635003;87;21102;-56
2021/03/21 03:41:21;;;;;;;55.15;31.25;;;;;;;-4.96;65.03;94542.13;1635063;86;21210;-56
2021/03/21 03:44:03;;;;;;;50.33;27.55;;;;;;;-4.94;65.42;94538.52;1607599;89;21106;-58
2021/03/21 03:46:51;;;;;;;55.67;29.27;;;;;;;-4.89;65.30;94540.91;1635227;87;21074;-56
2021/03/21 03:49:43;;;;;;;56.77;30.35;;;;;;;-4.87;65.61;94541.33;1630264;86;22136;-57
2021/03/21 03:52:29;;;;;;;42.03;25.70;;;;;;;-4.73;65.29;94537.02;1635293;87;21870;-57
2021/03/21 03:55:23;;;;;;;65.03;34.78;;;;;;;-4.56;65.00;94541.14;1635136;87;21114;-57
2021/03/21 03:58:02;;;;;;;46.88;26.35;;;;;;;-4.54;64.52;94531.61;1634382;87;21143;-56
2021/03/21 04:00:40;;;;;;;46.37;26.33;;;;;;;-4.67;64.34;94526.75;1607535;88;21126;-56
2021/03/21 04:03:22;;;;;;;48.40;27.22;;;;;;;-4.82;64.65;94523.63;1635259;86;22235;-57
2021/03/21 04:06:00;;;;;;;55.92;30.27;;;;;;;-4.88;64.53;94525.03;1593458;88;21163;-56
2021/03/21 04:08:40;;;;;;;59.38;32.30;;;;;;;-5.04;64.79;94523.78;1634803;87;21120;-56
2021/03/21 04:11:39;;;;;;;56.48;32.83;;;;;;;-5.14;65.14;94526.27;1634965;86;21086;-56
2021/03/21 04:14:15;;;;;;;63.87;36.73;;;;;;;-5.14;65.41;94515.54;1603070;88;21100;-56
2021/03/21 04:16:57;;;;;;;60.73;36.20;;;;;;;-5.04;65.36;94520.31;1630147;88;21218;-56
2021/03/21 04:19:28;;;;;;;66.65;35.58;;;;;;;-4.92;65.07;94522.30;1629942;88;21626;-56
2021/03/21 04:22:01;;;;;;;57.95;33.63;;;;;;;-4.87;65.06;94511.82;1603201;88;21176;-56
2021/03/21 04:24:39;;;;;;;88.87;46.50;;;;;;;-4.83;64.69;94515.38;1635054;87;21130;-55
2021/03/21 04:27:17;;;;;;;87.37;43.73;;;;;;;-4.78;64.54;94518.52;1634502;86;21099;-56
2021/03/21 04:29:50;;;;;;;73.00;40.28;;;;;;;-4.70;64.31;94512.71;1629985;86;21227;-56
2021/03/21 04:32:23;;;;;;;67.78;35.90;;;;;;;-4.59;63.90;94516.37;1634887;86;21119;-55
2021/03/21 04:34:53;;;;;;;50.43;27.17;;;;;;;-4.54;63.69;94513.37;1635190;87;21143;-55
2021/03/21 04:37:21;;;;;;;65.55;31.37;;;;;;;-4.55;63.30;94509.14;1630131;88;21087;-56
2021/03/21 04:39:51;;;;;;;52.40;28.30;;;;;;;-4.68;63.30;94506.41;1603252;88;21517;-56
2021/03/21 04:42:32;;;;;;;53.83;27.58;;;;;;;-4.80;63.49;94507.37;1634963;86;21222;-56
2021/03/21 04:45:09;;;;;;;58.70;31.95;;;;;;;-4.96;63.40;94505.92;1634968;87;21098;-56
2021/03/21 04:48:04;;;;;;;61.00;30.52;;;;;;;-5.08;63.92;94507.41;1635029;86;21085;-56
2021/03/21 04:50:33;;;;;;;64.72;34.13;;;;;;;-5.16;64.01;94514.54;1635051;86;21204;-56
2021/03/21 04:53:10;;;;;;;53.02;30.85;;;;;;;-5.29;64.57;94508.34;1603103;86;21180;-56
2021/03/21 04:55:47;;;;;;;63.13;32.00;;;;;;;-5.32;65.14;94508.27;1629526;88;21389;-58
2021/03/21 04:58:41;;;;;;;68.15;33.42;;;;;;;-5.21;65.04;94504.66;1630078;88;21164;-56
2021/03/21 05:01:27;;;;;;;64.90;34.85;;;;;;;-5.18;64.72;94506.08;1634935;87;21412;-56
2021/03/21 05:04:17;;;;;;;70.03;34.33;;;;;;;-5.20;64.57;94506.21;1634480;87;21186;-57
2021/03/21 05:07:00;;;;;;;71.05;35.28;;;;;;;-5.29;65.01;94500.31;1593650;88;21151;-56
2021/03/21 05:09:40;;;;;;;65.40;34.00;;;;;;;-5.16;65.12;94499.04;1615140;88;21237;-56
2021/03/21 05:12:44;;;;;;;73.15;39.63;;;;;;;-5.01;64.80;94502.20;1635000;87;21523;-56
2021/03/21 05:15:25;;;;;;;70.95;38.70;;;;;;;-4.87;64.69;94497.08;1618393;87;21177;-56
2021/03/21 05:18:17;;;;;;;78.42;39.58;;;;;;;-4.73;64.69;94494.09;1620511;88;21248;-57
2021/03/21 05:21:26;;;;;;;80.72;40.30;;;;;;;-4.58;64.52;94494.52;1634907;86;21205;-57
2021/03/21 05:24:19;;;;;;;71.85;37.55;;;;;;;-4.49;64.20;94481.66;1630124;88;21555;-57
2021/03/21 05:27:18;;;;;;;89.32;42.08;;;;;;;-4.50;64.20;94482.00;1630136;88;21200;-58
2021/03/21 05:30:11;;;;;;;89.03;41.10;;;;;;;-4.43;64.12;94482.14;1634887;86;21161;-56
2021/03/21 05:32:40;;;;;;;66.80;36.35;;;;;;;-4.44;64.06;94484.61;1627456;86;21079;-56
2021/03/21 05:35:13;;;;;;;96.20;49.25;;;;;;;-4.49;63.93;94475.50;1616393;88;21104;-56
2021/03/21 05:38:21;;;;;;;84.20;43.35;;;;;;;-4.52;63.89;94477.56;1616356;88;21394;-57
2021/03/21 05:41:03;;;;;;;62.73;35.75;;;;;;;-4.41;64.10;94475.25;1616225;87;21242;-57
2021/03/21 05:44:04;;;;;;;53.13;29.95;;;;;;;-4.27;63.43;94466.09;1616336;87;21231;-56
2021/03/21 05:47:10;;;;;;;48.55;29.55;;;;;;;-4.27;63.32;94465.33;1616330;87;21112;-57
2021/03/21 05:49:52;;;;;;;38.28;25.00;;;;;;;-4.39;63.15;94471.64;1616485;87;21515;-56
2021/03/21 05:52:31;;;;;;;42.55;24.80;;;;;;;-4.45;63.44;94463.70;1601363;89;21432;-57
2021/03/21 05:55:45;;;;;;;42.03;25.75;;;;;;;-4.45;63.32;94461.59;1616110;88;21106;-57
2021/03/21 05:58:40;;;;;;;38.35;23.77;;;;;;;-4.47;63.35;94466.52;1601581;89;21186;-56
2021/03/21 06:01:45;;;;;;;43.80;25.10;;;;;;;-4.42;63.58;94466.23;1614361;88;21107;-56
2021/03/21 06:04:47;;;;;;;38.90;22.30;;;;;;;-4.41;63.78;94467.78;1616211;88;21657;-56
2021/03/21 06:08:14;;;;;;;51.13;29.27;;;;;;;-4.37;63.93;94464.58;1616466;88;21390;-57
2021/03/21 06:11:04;;;;;;;50.90;29.87;;;;;;;-4.31;64.06;94461.23;1616281;88;21150;-56
2021/03/21 06:14:31;;;;;;;48.90;29.55;;;;;;;-4.05;64.05;94467.19;1888580;75;23269;-56
2021/03/21 06:17:17;;;;;;;86.42;44.05;;;;;;;-3.91;63.75;94472.77;1849827;77;21471;-57
2021/03/21 06:20:15;;;;;;;43.10;27.07;;;;;;;-3.87;63.33;94458.81;1849880;77;21186;-56
2021/03/21 06:22:58;;;;;;;46.30;29.42;;;;;;;-3.83;63.29;94454.26;1849817;77;21502;-57
2021/03/21 06:26:04;;;;;;;50.33;27.75;;;;;;;-3.64;62.76;94464.32;1807241;79;21060;-57
2021/03/21 06:28:49;;;;;;;50.12;30.08;;;;;;;-3.47;62.47;94451.64;1773936;81;21658;-57
2021/03/21 06:32:00;;;;;;;56.40;31.90;;;;;;;-3.34;62.19;94449.72;1744540;82;21091;-56
2021/03/21 06:34:50;;;;;;;62.00;30.15;;;;;;;-3.27;62.22;94445.75;1743292;82;21209;-57
2021/03/21 06:37:53;;;;;;;44.30;28.45;;;;;;;-3.17;61.99;94444.33;1744489;82;20987;-57
2021/03/21 06:40:54;;;;;;;51.95;28.70;;;;;;;-3.03;62.05;94446.59;1816620;79;22002;-57
2021/03/21 06:43:55;;;;;;;54.13;30.37;;;;;;;-2.74;61.03;94443.05;1744500;82;21163;-57
2021/03/21 06:46:35;;;;;;;55.65;30.90;;;;;;;-2.57;60.59;94435.70;1743265;82;21147;-56
2021/03/21 06:49:35;;;;;;;58.70;33.35;;;;;;;-2.48;59.86;94437.50;1744544;82;21224;-57
2021/03/21 06:52:46;;;;;;;54.77;31.57;;;;;;;-2.50;59.82;94429.02;1801540;79;21186;-57
2021/03/21 06:55:40;;;;;;;53.40;29.10;;;;;;;-2.47;59.91;94426.92;1781583;79;21123;-57
2021/03/21 06:58:42;;;;;;;60.98;34.38;;;;;;;-2.37;59.48;94430.29;1816655;79;21079;-57
2021/03/21 07:01:29;;;;;;;44.05;26.93;;;;;;;-2.31;59.44;94434.17;1744714;82;21068;-57
2021/03/21 07:04:38;;;;;;;44.63;26.20;;;;;;;-2.20;59.08;94426.95;1743119;82;21499;-57
2021/03/21 07:07:38;;;;;;;32.85;22.50;;;;;;;-2.11;59.04;94424.70;1744497;82;21564;-57
2021/03/21 07:10:28;;;;;;;28.20;18.25;;;;;;;-1.90;58.50;94427.55;1816398;78;21487;-58
2021/03/21 07:13:30;;;;;;;36.98;24.20;;;;;;;-1.83;58.20;94414.67;1746000;82;21129;-57
2021/03/21 07:16:28;;;;;;;41.63;26.75;;;;;;;-1.83;58.05;94416.80;1711453;82;21049;-56
2021/03/21 07:19:30;;;;;;;37.20;24.27;;;;;;;-1.63;57.86;94420.20;1756753;81;21208;-56
2021/03/21 07:22:39;;;;;;;30.30;18.98;;;;;;;-1.31;57.50;94419.73;1747532;82;21117;-56
2021/03/21 07:25:44;;;;;;;28.75;17.75;;;;;;;-1.02;56.79;94416.55;1756301;81;21511;-57
2021/03/21 07:28:49;;;;;;;24.47;15.70;;;;;;;-0.89;56.04;94413.70;1755475;81;21187;-56
2021/03/21 07:31:37;;;;;;;24.63;18.37;;;;;;;-0.70;55.31;94403.89;1746867;82;21049;-57
2021/03/21 07:34:36;;;;;;;24.52;16.15;;;;;;;-0.55;54.99;94397.36;1756244;81;22059;-57
2021/03/21 07:37:29;;;;;;;28.50;18.90;;;;;;;-0.33;54.48;94404.30;1746817;82;21141;-60
2021/03/21 07:40:27;;;;;;;32.53;21.02;;;;;;;-0.01;53.91;94389.03;1756291;81;21088;-55
2021/03/21 07:43:16;;;;;;;24.07;17.52;;;;;;;0.26;53.19;94392.83;1746811;81;21556;-56
2021/03/21 07:46:13;;;;;;;19.80;14.63;;;;;;;0.46;52.59;94385.84;1756204;81;21167;-56
2021/03/21 07:49:23;;;;;;;25.43;14.43;;;;;;;0.61;51.94;94381.89;1746902;82;21209;-58
2021/03/21 07:52:18;;;;;;;16.15;13.45;;;;;;;0.42;52.29;94373.48;1756042;81;21100;-59
2021/03/21 07:54:51;;;;;;;22.55;16.17;;;;;;;0.36;52.49;94366.34;1746873;82;21138;-57
2021/03/21 07:57:57;;;;;;;17.73;13.53;;;;;;;0.44;52.48;94358.38;1756246;81;21112;-59
2021/03/21 08:00:25;;;;;;;26.60;17.23;;;;;;;0.60;52.35;94352.53;1716538;83;21194;-58
2021/03/21 08:03:18;;;;;;;29.92;17.87;;;;;;;0.67;52.20;94364.11;1716872;82;21356;-57
2021/03/21 08:05:46;;;;;;;34.85;18.15;;;;;;;0.86;52.01;94356.86;1756430;81;21083;-59
2021/03/21 08:08:18;;;;;;;38.58;23.57;;;;;;;1.10;51.94;94355.94;1746787;82;21160;-59
2021/03/21 08:10:51;;;;;;;38.98;24.27;;;;;;;1.24;51.61;94346.37;1756151;81;21255;-57
2021/03/21 08:13:34;;;;;;;45.23;25.00;;;;;;;1.49;51.50;94333.41;1744944;81;21125;-57
2021/03/21 08:16:02;;;;;;;38.75;22.75;;;;;;;1.86;50.81;94334.82;1814285;79;21995;-57
2021/03/21 08:18:35;;;;;;;38.10;21.30;;;;;;;2.11;50.08;94327.23;1743992;82;21119;-59
2021/03/21 08:21:08;;;;;;;28.80;18.82;;;;;;;2.20;49.78;94319.38;1742682;82;21571;-58
2021/03/21 08:23:41;;;;;;;29.32;20.15;;;;;;;2.25;49.55;94316.20;1743399;82;21149;-57
2021/03/21 08:26:12;;;;;;;23.35;15.75;;;;;;;2.31;49.43;94311.89;1815870;79;21486;-56
2021/03/21 08:29:14;;;;;;;28.70;17.20;;;;;;;2.34;48.85;94308.36;1744000;82;21267;-57
2021/03/21 08:31:46;;;;;;;24.23;17.70;;;;;;;2.25;49.05;94304.78;1742454;82;21199;-58
2021/03/21 08:34:31;;;;;;;16.70;12.95;;;;;;;2.23;49.11;94298.20;1743693;82;21168;-57
2021/03/21 08:37:37;;;;;;;20.32;15.15;;;;;;;2.27;48.86;94294.28;1815808;79;21502;-57
2021/03/21 08:40:21;;;;;;;16.25;13.70;;;;;;;2.23;49.01;94292.78;1815846;78;21615;-57
2021/03/21 08:42:52;;;;;;;22.35;16.25;;;;;;;2.26;48.56;94290.03;1743946;82;21202;-57
2021/03/21 08:45:36;;;;;;;22.32;15.68;;;;;;;2.27;48.55;94282.66;1716030;82;21076;-57
2021/03/21 08:48:16;;;;;;;17.98;13.40;;;;;;;2.33;48.29;94275.02;1743909;82;21133;-59
2021/03/21 08:50:51;;;;;;;24.65;14.38;;;;;;;2.47;48.57;94268.67;1813096;79;21194;-56
2021/03/21 08:53:50;;;;;;;70.00;19.45;;;;;;;2.60;48.41;94268.28;1815872;79;21083;-58
2021/03/21 08:56:51;;;;;;;25.32;17.30;;;;;;;2.68;48.30;94275.17;1815784;79;21201;-59
2021/03/21 08:59:39;;;;;;;33.58;19.98;;;;;;;2.71;47.98;94268.32;1743876;82;21124;-57
2021/03/21 09:02:18;;;;;;;32.95;19.85;;;;;;;2.83;47.93;94264.30;1669422;82;21099;-57
2021/03/21 09:05:04;;;;;;;31.52;20.70;;;;;;;2.88;47.53;94262.48;1742528;82;21513;-59
2021/03/21 09:07:38;;;;;;;39.53;22.82;;;;;;;3.05;48.04;94251.34;1743939;82;21228;-59
2021/03/21 09:10:24;;;;;;;34.95;21.20;;;;;;;3.37;47.45;94252.20;1815902;79;22276;-57
2021/03/21 09:13:02;;;;;;;32.95;21.50;;;;;;;3.53;47.07;94247.06;1744460;81;21120;-58
2021/03/21 09:15:37;;;;;;;31.75;20.45;;;;;;;3.60;46.68;94238.80;1732520;81;21150;-58
2021/03/21 09:18:20;;;;;;;30.25;20.10;;;;;;;3.60;46.49;94236.09;1746890;81;21169;-57
2021/03/21 09:21:16;;;;;;;36.45;21.15;;;;;;;3.73;46.31;94228.84;1756333;81;21066;-57
2021/03/21 09:23:52;;;;;;;41.13;23.95;;;;;;;3.94;46.36;94225.75;1747054;82;21208;-56
2021/03/21 09:26:38;;;;;;;33.00;21.77;;;;;;;4.16;45.97;94221.44;1756138;81;20977;-58
2021/03/21 09:29:32;;;;;;;34.73;23.67;;;;;;;4.29;45.40;94203.30;1756069;81;21084;-57
2021/03/21 09:32:06;;;;;;;;;;;;;;;4.51;45.55;94202.23;1749621;82;21081;-57
2021/03/21 09:35:23;;;;;;;29.12;18.65;;;;;;;4.68;45.60;94192.33;1742183;82;20249;-58
2021/03/21 09:37:52;;;;;;;28.52;18.37;;;;;;;4.92;44.67;94199.76;1743856;82;21433;-56
2021/03/21 09:40:36;;;;;;;30.95;20.43;;;;;;;5.31;43.85;94186.75;1777762;80;21897;-60
2021/03/21 09:43:04;;;;;;;30.05;18.85;;;;;;;5.53;43.78;94185.02;1720081;82;21574;-59
2021/03/21 09:45:33;;;;;;;25.17;15.23;;;;;;;5.76;42.75;94178.02;1777858;80;21638;-58
2021/03/21 09:48:04;;;;;;;24.45;16.40;;;;;;;5.93;41.34;94175.45;1747081;82;21083;-58
2021/03/21 09:50:49;;;;;;;22.00;15.10;;;;;;;6.13;41.02;94170.59;1777842;80;21527;-59
2021/03/21 09:53:35;;;;;;;29.07;13.25;;;;;;;6.47;39.85;94170.77;1746999;82;21127;-57
2021/03/21 09:56:19;;;;;;;24.82;14.60;;;;;;;6.89;38.41;94161.32;1777820;80;21486;-56
2021/03/21 09:59:00;;;;;;;15.88;11.15;;;;;;;7.26;38.79;94156.59;1737810;82;22202;-59
2021/03/21 10:01:39;;;;;;;28.40;12.00;;;;;;;7.60;36.11;94153.90;1778035;80;21063;-58
2021/03/21 10:04:40;;;;;;;13.93;10.48;;;;;;;7.91;36.19;94145.18;1725183;82;21227;-59
2021/03/21 10:07:14;;;;;;;17.57;11.90;;;;;;;8.37;35.04;94138.86;1777726;80;21102;-59
2021/03/21 10:09:43;;;;;;;17.45;12.05;;;;;;;8.84;34.44;94144.89;1746961;82;21618;-58
2021/03/21 10:12:12;;;;;;;24.10;12.95;;;;;;;9.24;33.93;94132.71;1754437;80;21166;-58
2021/03/21 10:14:43;;;;;;;18.32;12.65;;;;;;;9.62;34.25;94126.86;1744369;81;21508;-58
2021/03/21 10:17:23;;;;;;;15.03;10.75;;;;;;;10.10;33.22;94119.11;1815693;79;21368;-59
2021/03/21 10:19:55;;;;;;;11.60;8.35;;;;;;;10.58;32.07;94119.52;1743721;82;21187;-59
2021/03/21 10:22:33;;;;;;;15.00;8.40;;;;;;;11.11;30.76;94111.09;1742525;82;21143;-59
2021/03/21 10:25:10;;;;;;;17.17;10.03;;;;;;;11.55;29.79;94114.83;1743839;82;21166;-59
2021/03/21 10:27:47;;;;;;;9.93;7.17;;;;;;;11.77;30.16;94109.84;1740388;82;21075;-58
2021/03/21 10:30:29;;;;;;;18.45;7.33;;;;;;;12.04;28.42;94101.36;1743705;82;21371;-58
2021/03/21 10:33:05;;;;;;;13.08;8.53;;;;;;;12.36;28.14;94101.86;1742184;82;21092;-59
2021/03/21 10:35:45;;;;;;;16.55;8.43;;;;;;;12.66;27.14;94097.26;1743909;82;21154;-59
2021/03/21 10:38:47;;;;;;;8.65;6.05;;;;;;;12.75;26.56;94090.25;1742226;81;21135;-59
2021/03/21 10:41:57;;;;;;;10.93;6.78;;;;;;;12.81;26.07;94086.20;1743900;82;21123;-58
2021/03/21 10:44:41;;;;;;;9.25;6.72;;;;;;;12.80;26.07;94077.18;1742045;82;21480;-58
2021/03/21 10:47:27;;;;;;;7.00;6.20;;;;;;;12.95;26.45;94081.33;1814980;79;21166;-60
2021/03/21 10:49:57;;;;;;;8.88;6.80;;;;;;;13.13;25.15;94079.73;1724212;82;21191;-59
2021/03/21 10:52:34;;;;;;;9.18;6.58;;;;;;;13.60;25.04;94073.89;1709466;83;21183;-60
2021/03/21 10:55:18;;;;;;;14.10;6.83;;;;;;;13.96;23.35;94070.58;1777609;80;21071;-60
2021/03/21 10:57:49;;;;;;;15.40;6.28;;;;;;;13.97;24.40;94076.25;1777757;80;21367;-59
2021/03/21 11:00:21;;;;;;;12.15;6.62;;;;;;;13.93;23.24;94060.47;1777927;80;21102;-58
2021/03/21 11:03:10;;;;;;;8.20;6.33;;;;;;;13.93;22.02;94048.80;1777974;80;21087;-60
2021/03/21 11:05:45;;;;;;;9.03;6.20;;;;;;;13.87;22.63;94049.36;1777931;80;21567;-59
2021/03/21 11:08:29;;;;;;;8.45;5.53;;;;;;;13.87;22.64;94041.67;1778007;80;21136;-58
2021/03/21 11:11:16;;;;;;;8.20;5.47;;;;;;;14.13;21.69;94033.56;1778000;80;21273;-59
2021/03/21 11:13:45;;;;;;;7.15;5.58;;;;;;;14.65;22.10;94049.70;1776691;80;21134;-60
2021/03/21 11:16:17;;;;;;;7.33;5.42;;;;;;;14.82;21.13;94042.30;1780928;80;21175;-59
2021/03/21 11:18:53;;;;;;;7.00;5.53;;;;;;;14.84;21.73;94044.59;1781001;80;21587;-60
2021/03/21 11:21:24;;;;;;;8.25;5.78;;;;;;;14.98;21.72;94043.06;1779723;80;21082;-58
2021/03/21 11:24:17;;;;;;;8.23;5.83;;;;;;;15.11;20.89;94036.49;1755500;80;21216;-58
2021/03/21 11:26:45;;;;;;;12.58;5.70;;;;;;;15.01;20.10;94035.14;1780933;80;21219;-58
2021/03/21 11:29:28;;;;;;;8.70;5.28;;;;;;;14.65;20.48;94030.32;1780949;80;21706;-59
2021/03/21 11:32:03;;;;;;;10.30;6.67;;;;;;;14.52;21.16;94016.74;1781165;80;21583;-59
2021/03/21 11:34:35;;;;;;;7.90;5.97;;;;;;;14.47;21.93;94002.98;1780930;80;21584;-60
2021/03/21 11:37:25;;;;;;;;;;;;;;;14.67;21.15;94009.82;1783410;80;21199;-62
2021/03/21 11:39:58;;;;;;;7.78;5.35;;;;;;;14.67;21.02;94002.16;1781080;80;20234;-58
2021/03/21 11:42:31;;;;;;;9.60;6.25;;;;;;;14.56;20.92;93993.75;1781158;80;21480;-58
2021/03/21 11:45:20;;;;;;;7.78;5.53;;;;;;;14.77;21.01;93993.17;1780921;80;21051;-62
2021/03/21 11:47:57;;;;;;;6.75;5.58;;;;;;;15.09;19.95;93988.36;1781033;80;21464;-58
2021/03/21 11:50:32;;;;;;;5.75;5.22;;;;;;;15.21;20.77;93983.77;1755397;80;21376;-58
2021/03/21 11:53:02;;;;;;;9.65;5.58;;;;;;;15.39;19.91;93979.24;1780851;80;21072;-59
2021/03/21 11:55:36;;;;;;;29.60;6.58;;;;;;;15.49;20.71;93985.34;1781001;80;21532;-57
2021/03/21 11:58:31;;;;;;;10.85;6.45;;;;;;;15.45;21.06;93977.28;1730912;82;21107;-58
2021/03/21 12:01:03;;;;;;;7.35;5.40;;;;;;;15.28;21.77;93984.72;1775086;80;21096;-59
2021/03/21 12:03:57;;;;;;;8.70;6.17;;;;;;;15.15;19.90;93969.78;1775512;80;21602;-59
2021/03/21 12:06:34;;;;;;;6.92;5.85;;;;;;;15.35;19.99;93965.52;1775373;80;21075;-58
2021/03/21 12:09:29;;;;;;;9.70;6.72;;;;;;;15.37;20.12;93960.97;1775426;80;21143;-58
2021/03/21 12:12:02;;;;;;;10.95;6.42;;;;;;;15.49;20.97;93956.23;1775450;80;21088;-59
2021/03/21 12:14:40;;;;;;;7.08;5.97;;;;;;;15.57;20.40;93946.94;1774359;80;21599;-59
2021/03/21 12:17:30;;;;;;;11.57;5.80;;;;;;;15.56;20.12;93941.27;1775471;80;21382;-59
2021/03/21 12:20:35;;;;;;;20.77;7.55;;;;;;;15.87;21.00;93939.75;1775390;80;21504;-59
2021/03/21 12:23:04;;;;;;;13.40;7.50;;;;;;;15.96;20.69;93933.98;1775389;80;21136;-59
2021/03/21 12:25:35;;;;;;;14.40;7.92;;;;;;;15.98;20.69;93943.17;1775459;80;21606;-59
2021/03/21 12:28:18;;;;;;;8.73;6.55;;;;;;;16.19;19.61;93941.08;1775555;80;21135;-58
2021/03/21 12:30:49;;;;;;;14.28;7.25;;;;;;;16.35;19.69;93932.05;1775482;80;21385;-57